sensor_id;sensor_type;location;lat;lon;timestamp;P1;durP1;ratioP1;P2;durP2;ratioP2
32186;SDS011;18686;53.084;8.872;2024-03-02T00:01:35;16.40;;;12.73;;
32186;SDS011;18686;53.084;8.872;2024-03-02T00:04:05;18.20;;;12.50;;
32186;SDS011;18686;53.084;8.872;2024-03-02T00:06:35;18.20;;;11.95;;
32186;SDS011;18686;53.084;8.872;2024-03-02T00:09:04;17.58;;;12.48;;
32186;SDS011;18686;53.084;8.872;2024-03-02T00:11:34;16.42;;;11.00;;
32186;SDS011;18686;53.084;8.872;2024-03-02T00:14:03;18.73;;;12.20;;
32186;SDS011;18686;53.084;8.872;2024-03-02T00:16:32;17.02;;;12.50;;
32186;SDS011;18686;53.084;8.872;2024-03-02T00:19:01;16.25;;;11.95;;
32186;SDS011;18686;53.084;8.872;2024-03-02T00:21:31;18.58;;;13.48;;
32186;SDS011;18686;53.084;8.872;2024-03-02T00:24:01;16.40;;;12.07;;
32186;SDS011;18686;53.084;8.872;2024-03-02T00:26:34;19.25;;;11.82;;
32186;SDS011;18686;53.084;8.872;2024-03-02T00:29:02;17.83;;;12.18;;
32186;SDS011;18686;53.084;8.872;2024-03-02T00:31:33;16.23;;;12.35;;
32186;SDS011;18686;53.084;8.872;2024-03-02T00:34:01;17.77;;;12.55;;
32186;SDS011;18686;53.084;8.872;2024-03-02T00:36:34;16.48;;;11.70;;
32186;SDS011;18686;53.084;8.872;2024-03-02T00:39:03;16.85;;;11.88;;
32186;SDS011;18686;53.084;8.872;2024-03-02T00:41:34;16.40;;;12.35;;
32186;SDS011;18686;53.084;8.872;2024-03-02T00:44:02;16.08;;;12.18;;
32186;SDS011;18686;53.084;8.872;2024-03-02T00:46:33;18.67;;;11.90;;
32186;SDS011;18686;53.084;8.872;2024-03-02T00:49:02;20.15;;;12.55;;
32186;SDS011;18686;53.084;8.872;2024-03-02T00:51:32;16.20;;;11.70;;
32186;SDS011;18686;53.084;8.872;2024-03-02T00:54:05;16.85;;;12.23;;
32186;SDS011;18686;53.084;8.872;2024-03-02T00:56:35;17.55;;;12.45;;
32186;SDS011;18686;53.084;8.872;2024-03-02T00:59:03;18.33;;;12.13;;
32186;SDS011;18686;53.084;8.872;2024-03-02T01:01:31;20.10;;;12.90;;
32186;SDS011;18686;53.084;8.872;2024-03-02T01:04:00;18.25;;;12.55;;
32186;SDS011;18686;53.084;8.872;2024-03-02T01:06:28;17.33;;;12.70;;
32186;SDS011;18686;53.084;8.872;2024-03-02T01:08:58;16.65;;;12.27;;
32186;SDS011;18686;53.084;8.872;2024-03-02T01:11:28;16.05;;;12.18;;
32186;SDS011;18686;53.084;8.872;2024-03-02T01:13:56;17.77;;;12.50;;
32186;SDS011;18686;53.084;8.872;2024-03-02T01:16:24;17.25;;;12.32;;
32186;SDS011;18686;53.084;8.872;2024-03-02T01:18:53;17.58;;;11.98;;
32186;SDS011;18686;53.084;8.872;2024-03-02T01:21:21;17.58;;;12.60;;
32186;SDS011;18686;53.084;8.872;2024-03-02T01:23:50;19.65;;;12.50;;
32186;SDS011;18686;53.084;8.872;2024-03-02T01:26:18;17.25;;;12.00;;
32186;SDS011;18686;53.084;8.872;2024-03-02T01:28:48;19.92;;;12.30;;
32186;SDS011;18686;53.084;8.872;2024-03-02T01:31:16;17.55;;;12.43;;
32186;SDS011;18686;53.084;8.872;2024-03-02T01:33:44;17.95;;;12.40;;
32186;SDS011;18686;53.084;8.872;2024-03-02T01:36:13;16.95;;;12.15;;
32186;SDS011;18686;53.084;8.872;2024-03-02T01:38:41;17.33;;;12.40;;
32186;SDS011;18686;53.084;8.872;2024-03-02T01:41:09;17.63;;;12.85;;
32186;SDS011;18686;53.084;8.872;2024-03-02T01:43:38;18.05;;;13.15;;
32186;SDS011;18686;53.084;8.872;2024-03-02T01:46:09;17.55;;;12.02;;
32186;SDS011;18686;53.084;8.872;2024-03-02T01:48:37;19.75;;;13.23;;
32186;SDS011;18686;53.084;8.872;2024-03-02T01:51:06;17.67;;;11.88;;
32186;SDS011;18686;53.084;8.872;2024-03-02T01:53:34;18.17;;;12.25;;
32186;SDS011;18686;53.084;8.872;2024-03-02T01:56:03;17.23;;;12.85;;
32186;SDS011;18686;53.084;8.872;2024-03-02T01:58:32;16.17;;;12.85;;
32186;SDS011;18686;53.084;8.872;2024-03-02T02:01:00;17.85;;;12.93;;
32186;SDS011;18686;53.084;8.872;2024-03-02T02:03:30;17.13;;;13.00;;
32186;SDS011;18686;53.084;8.872;2024-03-02T02:05:58;18.27;;;12.02;;
32186;SDS011;18686;53.084;8.872;2024-03-02T02:08:26;15.23;;;11.98;;
32186;SDS011;18686;53.084;8.872;2024-03-02T02:10:55;18.67;;;13.25;;
32186;SDS011;18686;53.084;8.872;2024-03-02T02:13:23;19.02;;;13.07;;
32186;SDS011;18686;53.084;8.872;2024-03-02T02:15:51;17.75;;;12.27;;
32186;SDS011;18686;53.084;8.872;2024-03-02T02:18:20;17.08;;;12.32;;
32186;SDS011;18686;53.084;8.872;2024-03-02T02:20:51;18.85;;;12.18;;
32186;SDS011;18686;53.084;8.872;2024-03-02T02:23:21;14.65;;;11.93;;
32186;SDS011;18686;53.084;8.872;2024-03-02T02:25:49;18.08;;;12.65;;
32186;SDS011;18686;53.084;8.872;2024-03-02T02:28:17;15.68;;;12.68;;
32186;SDS011;18686;53.084;8.872;2024-03-02T02:30:45;18.13;;;13.85;;
32186;SDS011;18686;53.084;8.872;2024-03-02T02:33:14;22.67;;;15.20;;
32186;SDS011;18686;53.084;8.872;2024-03-02T02:35:42;17.95;;;13.77;;
32186;SDS011;18686;53.084;8.872;2024-03-02T02:38:10;17.13;;;13.93;;
32186;SDS011;18686;53.084;8.872;2024-03-02T02:40:40;20.50;;;14.48;;
32186;SDS011;18686;53.084;8.872;2024-03-02T02:43:08;17.92;;;13.80;;
32186;SDS011;18686;53.084;8.872;2024-03-02T02:45:37;19.23;;;14.60;;
32186;SDS011;18686;53.084;8.872;2024-03-02T02:48:05;20.92;;;15.35;;
32186;SDS011;18686;53.084;8.872;2024-03-02T02:50:34;22.02;;;16.20;;
32186;SDS011;18686;53.084;8.872;2024-03-02T02:53:02;17.58;;;13.98;;
32186;SDS011;18686;53.084;8.872;2024-03-02T02:55:31;19.60;;;14.82;;
32186;SDS011;18686;53.084;8.872;2024-03-02T02:58:00;21.77;;;14.18;;
32186;SDS011;18686;53.084;8.872;2024-03-02T03:00:28;20.38;;;14.93;;
32186;SDS011;18686;53.084;8.872;2024-03-02T03:02:57;19.80;;;15.13;;
32186;SDS011;18686;53.084;8.872;2024-03-02T03:05:25;21.75;;;16.27;;
32186;SDS011;18686;53.084;8.872;2024-03-02T03:07:53;22.00;;;16.63;;
32186;SDS011;18686;53.084;8.872;2024-03-02T03:10:22;20.23;;;15.63;;
32186;SDS011;18686;53.084;8.872;2024-03-02T03:12:52;21.52;;;16.10;;
32186;SDS011;18686;53.084;8.872;2024-03-02T03:15:24;19.40;;;15.20;;
32186;SDS011;18686;53.084;8.872;2024-03-02T03:17:53;23.50;;;16.17;;
32186;SDS011;18686;53.084;8.872;2024-03-02T03:20:21;20.77;;;15.18;;
32186;SDS011;18686;53.084;8.872;2024-03-02T03:22:51;20.77;;;16.15;;
32186;SDS011;18686;53.084;8.872;2024-03-02T03:25:21;23.83;;;16.30;;
32186;SDS011;18686;53.084;8.872;2024-03-02T03:27:49;20.17;;;15.43;;
32186;SDS011;18686;53.084;8.872;2024-03-02T03:30:19;26.25;;;16.15;;
32186;SDS011;18686;53.084;8.872;2024-03-02T03:32:48;25.00;;;16.70;;
32186;SDS011;18686;53.084;8.872;2024-03-02T03:35:17;22.65;;;16.42;;
32186;SDS011;18686;53.084;8.872;2024-03-02T03:37:46;20.20;;;15.55;;
32186;SDS011;18686;53.084;8.872;2024-03-02T03:40:14;20.45;;;15.88;;
32186;SDS011;18686;53.084;8.872;2024-03-02T03:42:42;20.05;;;15.35;;
32186;SDS011;18686;53.084;8.872;2024-03-02T03:45:11;20.95;;;15.80;;
32186;SDS011;18686;53.084;8.872;2024-03-02T03:47:39;19.02;;;14.98;;
32186;SDS011;18686;53.084;8.872;2024-03-02T03:50:09;20.23;;;15.18;;
32186;SDS011;18686;53.084;8.872;2024-03-02T03:52:37;23.10;;;15.75;;
32186;SDS011;18686;53.084;8.872;2024-03-02T03:55:06;21.48;;;14.60;;
32186;SDS011;18686;53.084;8.872;2024-03-02T03:57:35;21.27;;;15.68;;
32186;SDS011;18686;53.084;8.872;2024-03-02T04:00:03;16.95;;;13.85;;
32186;SDS011;18686;53.084;8.872;2024-03-02T04:02:39;17.38;;;14.15;;
32186;SDS011;18686;53.084;8.872;2024-03-02T04:05:08;18.58;;;14.25;;
32186;SDS011;18686;53.084;8.872;2024-03-02T04:07:38;19.15;;;15.05;;
32186;SDS011;18686;53.084;8.872;2024-03-02T04:10:07;20.42;;;14.98;;
32186;SDS011;18686;53.084;8.872;2024-03-02T04:12:36;18.00;;;13.80;;
32186;SDS011;18686;53.084;8.872;2024-03-02T04:15:05;17.92;;;13.02;;
32186;SDS011;18686;53.084;8.872;2024-03-02T04:18:17;18.05;;;14.35;;
32186;SDS011;18686;53.084;8.872;2024-03-02T04:20:46;18.05;;;14.43;;
32186;SDS011;18686;53.084;8.872;2024-03-02T04:23:19;17.13;;;13.90;;
32186;SDS011;18686;53.084;8.872;2024-03-02T04:25:47;17.75;;;13.60;;
32186;SDS011;18686;53.084;8.872;2024-03-02T04:28:16;18.02;;;12.88;;
32186;SDS011;18686;53.084;8.872;2024-03-02T04:30:44;15.48;;;12.55;;
32186;SDS011;18686;53.084;8.872;2024-03-02T04:33:13;15.75;;;12.40;;
32186;SDS011;18686;53.084;8.872;2024-03-02T04:35:41;18.33;;;12.43;;
32186;SDS011;18686;53.084;8.872;2024-03-02T04:38:11;18.15;;;13.57;;
32186;SDS011;18686;53.084;8.872;2024-03-02T04:40:39;16.02;;;13.18;;
32186;SDS011;18686;53.084;8.872;2024-03-02T04:43:09;15.40;;;12.15;;
32186;SDS011;18686;53.084;8.872;2024-03-02T04:45:41;16.02;;;12.52;;
32186;SDS011;18686;53.084;8.872;2024-03-02T04:48:10;15.20;;;12.52;;
32186;SDS011;18686;53.084;8.872;2024-03-02T04:50:38;16.55;;;12.25;;
32186;SDS011;18686;53.084;8.872;2024-03-02T04:53:07;15.45;;;11.85;;
32186;SDS011;18686;53.084;8.872;2024-03-02T04:55:36;17.45;;;12.57;;
32186;SDS011;18686;53.084;8.872;2024-03-02T04:58:36;16.17;;;12.15;;
32186;SDS011;18686;53.084;8.872;2024-03-02T05:01:04;15.68;;;12.30;;
32186;SDS011;18686;53.084;8.872;2024-03-02T05:03:33;14.60;;;11.18;;
32186;SDS011;18686;53.084;8.872;2024-03-02T05:06:01;14.65;;;11.93;;
32186;SDS011;18686;53.084;8.872;2024-03-02T05:08:30;16.15;;;12.50;;
32186;SDS011;18686;53.084;8.872;2024-03-02T05:10:59;16.05;;;12.27;;
32186;SDS011;18686;53.084;8.872;2024-03-02T05:13:48;16.48;;;13.15;;
32186;SDS011;18686;53.084;8.872;2024-03-02T05:16:15;16.45;;;12.50;;
32186;SDS011;18686;53.084;8.872;2024-03-02T05:18:44;16.85;;;12.15;;
32186;SDS011;18686;53.084;8.872;2024-03-02T05:21:12;15.25;;;11.77;;
32186;SDS011;18686;53.084;8.872;2024-03-02T05:23:40;16.15;;;11.38;;
32186;SDS011;18686;53.084;8.872;2024-03-02T05:26:10;15.55;;;11.50;;
32186;SDS011;18686;53.084;8.872;2024-03-02T05:28:39;14.27;;;11.48;;
32186;SDS011;18686;53.084;8.872;2024-03-02T05:31:09;13.65;;;10.60;;
32186;SDS011;18686;53.084;8.872;2024-03-02T05:33:38;17.30;;;12.77;;
32186;SDS011;18686;53.084;8.872;2024-03-02T05:36:07;16.60;;;11.55;;
32186;SDS011;18686;53.084;8.872;2024-03-02T05:38:35;17.05;;;12.15;;
32186;SDS011;18686;53.084;8.872;2024-03-02T05:41:04;14.88;;;11.45;;
32186;SDS011;18686;53.084;8.872;2024-03-02T05:43:33;16.70;;;11.95;;
32186;SDS011;18686;53.084;8.872;2024-03-02T05:46:03;18.90;;;12.68;;
32186;SDS011;18686;53.084;8.872;2024-03-02T05:48:31;17.45;;;11.70;;
32186;SDS011;18686;53.084;8.872;2024-03-02T05:50:59;17.38;;;11.57;;
32186;SDS011;18686;53.084;8.872;2024-03-02T05:53:28;17.48;;;13.02;;
32186;SDS011;18686;53.084;8.872;2024-03-02T05:55:56;16.30;;;12.48;;
32186;SDS011;18686;53.084;8.872;2024-03-02T05:58:27;19.52;;;14.18;;
32186;SDS011;18686;53.084;8.872;2024-03-02T06:01:05;16.83;;;13.10;;
32186;SDS011;18686;53.084;8.872;2024-03-02T06:03:36;14.98;;;12.10;;
32186;SDS011;18686;53.084;8.872;2024-03-02T06:06:05;17.10;;;12.77;;
32186;SDS011;18686;53.084;8.872;2024-03-02T06:08:33;15.85;;;12.30;;
32186;SDS011;18686;53.084;8.872;2024-03-02T06:11:01;15.05;;;12.25;;
32186;SDS011;18686;53.084;8.872;2024-03-02T06:13:30;18.10;;;12.55;;
32186;SDS011;18686;53.084;8.872;2024-03-02T06:15:58;19.98;;;12.40;;
32186;SDS011;18686;53.084;8.872;2024-03-02T06:18:28;17.38;;;12.20;;
32186;SDS011;18686;53.084;8.872;2024-03-02T06:20:56;17.45;;;12.45;;
32186;SDS011;18686;53.084;8.872;2024-03-02T06:23:24;17.50;;;13.10;;
32186;SDS011;18686;53.084;8.872;2024-03-02T06:25:53;16.88;;;13.15;;
32186;SDS011;18686;53.084;8.872;2024-03-02T06:28:21;16.88;;;13.30;;
32186;SDS011;18686;53.084;8.872;2024-03-02T06:30:49;18.63;;;13.25;;
32186;SDS011;18686;53.084;8.872;2024-03-02T06:33:18;15.48;;;12.43;;
32186;SDS011;18686;53.084;8.872;2024-03-02T06:35:48;15.77;;;12.57;;
32186;SDS011;18686;53.084;8.872;2024-03-02T06:38:16;19.90;;;13.60;;
32186;SDS011;18686;53.084;8.872;2024-03-02T06:40:45;19.17;;;13.40;;
32186;SDS011;18686;53.084;8.872;2024-03-02T06:43:13;18.17;;;13.55;;
32186;SDS011;18686;53.084;8.872;2024-03-02T06:45:41;18.30;;;13.68;;
32186;SDS011;18686;53.084;8.872;2024-03-02T06:48:09;19.35;;;12.80;;
32186;SDS011;18686;53.084;8.872;2024-03-02T06:50:38;18.23;;;13.63;;
32186;SDS011;18686;53.084;8.872;2024-03-02T06:53:07;19.17;;;12.82;;
32186;SDS011;18686;53.084;8.872;2024-03-02T06:55:35;17.73;;;12.68;;
32186;SDS011;18686;53.084;8.872;2024-03-02T06:58:04;16.92;;;12.98;;
32186;SDS011;18686;53.084;8.872;2024-03-02T07:00:32;17.50;;;12.75;;
32186;SDS011;18686;53.084;8.872;2024-03-02T07:03:00;17.67;;;12.70;;
32186;SDS011;18686;53.084;8.872;2024-03-02T07:05:29;17.05;;;12.75;;
32186;SDS011;18686;53.084;8.872;2024-03-02T07:07:57;15.30;;;12.07;;
32186;SDS011;18686;53.084;8.872;2024-03-02T07:10:27;18.80;;;12.88;;
32186;SDS011;18686;53.084;8.872;2024-03-02T07:12:55;17.73;;;11.75;;
32186;SDS011;18686;53.084;8.872;2024-03-02T07:15:24;17.13;;;12.30;;
32186;SDS011;18686;53.084;8.872;2024-03-02T07:18:16;15.15;;;11.38;;
32186;SDS011;18686;53.084;8.872;2024-03-02T07:20:45;17.40;;;12.73;;
32186;SDS011;18686;53.084;8.872;2024-03-02T07:23:13;16.52;;;12.65;;
32186;SDS011;18686;53.084;8.872;2024-03-02T07:25:43;15.10;;;11.32;;
32186;SDS011;18686;53.084;8.872;2024-03-02T07:28:14;18.67;;;12.18;;
32186;SDS011;18686;53.084;8.872;2024-03-02T07:30:42;15.45;;;11.85;;
32186;SDS011;18686;53.084;8.872;2024-03-02T07:33:10;15.13;;;11.30;;
32186;SDS011;18686;53.084;8.872;2024-03-02T07:35:39;17.77;;;12.40;;
32186;SDS011;18686;53.084;8.872;2024-03-02T07:38:07;17.58;;;12.43;;
32186;SDS011;18686;53.084;8.872;2024-03-02T07:40:35;16.10;;;11.75;;
32186;SDS011;18686;53.084;8.872;2024-03-02T07:43:05;17.33;;;11.82;;
32186;SDS011;18686;53.084;8.872;2024-03-02T07:45:33;19.60;;;12.35;;
32186;SDS011;18686;53.084;8.872;2024-03-02T07:48:02;17.30;;;11.65;;
32186;SDS011;18686;53.084;8.872;2024-03-02T07:50:31;15.32;;;11.38;;
32186;SDS011;18686;53.084;8.872;2024-03-02T07:53:01;17.80;;;12.00;;
32186;SDS011;18686;53.084;8.872;2024-03-02T07:55:30;14.75;;;11.02;;
32186;SDS011;18686;53.084;8.872;2024-03-02T07:57:59;18.55;;;11.70;;
32186;SDS011;18686;53.084;8.872;2024-03-02T08:00:30;16.13;;;11.30;;
32186;SDS011;18686;53.084;8.872;2024-03-02T08:02:58;17.60;;;11.77;;
32186;SDS011;18686;53.084;8.872;2024-03-02T08:05:26;18.25;;;12.77;;
32186;SDS011;18686;53.084;8.872;2024-03-02T08:07:55;16.38;;;12.35;;
32186;SDS011;18686;53.084;8.872;2024-03-02T08:10:24;15.02;;;11.27;;
32186;SDS011;18686;53.084;8.872;2024-03-02T08:12:52;14.63;;;11.52;;
32186;SDS011;18686;53.084;8.872;2024-03-02T08:15:21;16.67;;;11.68;;
32186;SDS011;18686;53.084;8.872;2024-03-02T08:17:51;18.15;;;12.02;;
32186;SDS011;18686;53.084;8.872;2024-03-02T08:20:20;18.52;;;13.48;;
32186;SDS011;18686;53.084;8.872;2024-03-02T08:22:48;15.77;;;11.90;;
32186;SDS011;18686;53.084;8.872;2024-03-02T08:25:17;17.40;;;11.93;;
32186;SDS011;18686;53.084;8.872;2024-03-02T08:27:45;15.27;;;11.25;;
32186;SDS011;18686;53.084;8.872;2024-03-02T08:30:14;22.13;;;12.48;;
32186;SDS011;18686;53.084;8.872;2024-03-02T08:32:42;15.98;;;11.15;;
32186;SDS011;18686;53.084;8.872;2024-03-02T08:35:13;16.40;;;12.40;;
32186;SDS011;18686;53.084;8.872;2024-03-02T08:37:41;14.35;;;10.65;;
32186;SDS011;18686;53.084;8.872;2024-03-02T08:40:10;17.23;;;11.98;;
32186;SDS011;18686;53.084;8.872;2024-03-02T08:42:44;15.35;;;11.50;;
32186;SDS011;18686;53.084;8.872;2024-03-02T08:45:13;16.00;;;11.98;;
32186;SDS011;18686;53.084;8.872;2024-03-02T08:47:42;16.55;;;11.48;;
32186;SDS011;18686;53.084;8.872;2024-03-02T08:50:12;17.05;;;11.25;;
32186;SDS011;18686;53.084;8.872;2024-03-02T08:52:40;15.40;;;11.65;;
32186;SDS011;18686;53.084;8.872;2024-03-02T08:55:09;15.25;;;11.38;;
32186;SDS011;18686;53.084;8.872;2024-03-02T08:57:38;16.67;;;12.18;;
32186;SDS011;18686;53.084;8.872;2024-03-02T09:00:08;16.65;;;12.00;;
32186;SDS011;18686;53.084;8.872;2024-03-02T09:02:37;14.30;;;10.60;;
32186;SDS011;18686;53.084;8.872;2024-03-02T09:05:06;16.80;;;11.73;;
32186;SDS011;18686;53.084;8.872;2024-03-02T09:07:37;13.82;;;9.73;;
32186;SDS011;18686;53.084;8.872;2024-03-02T09:10:05;14.75;;;10.38;;
32186;SDS011;18686;53.084;8.872;2024-03-02T09:12:35;12.93;;;10.00;;
32186;SDS011;18686;53.084;8.872;2024-03-02T09:15:05;13.25;;;9.05;;
32186;SDS011;18686;53.084;8.872;2024-03-02T09:17:34;11.60;;;8.73;;
32186;SDS011;18686;53.084;8.872;2024-03-02T09:20:02;11.50;;;8.85;;
32186;SDS011;18686;53.084;8.872;2024-03-02T09:22:31;12.65;;;10.02;;
32186;SDS011;18686;53.084;8.872;2024-03-02T09:25:01;12.23;;;9.82;;
32186;SDS011;18686;53.084;8.872;2024-03-02T09:27:30;11.60;;;8.70;;
32186;SDS011;18686;53.084;8.872;2024-03-02T09:29:58;14.63;;;9.57;;
32186;SDS011;18686;53.084;8.872;2024-03-02T09:32:27;13.18;;;9.48;;
32186;SDS011;18686;53.084;8.872;2024-03-02T09:34:55;12.05;;;9.60;;
32186;SDS011;18686;53.084;8.872;2024-03-02T09:37:24;13.30;;;9.43;;
32186;SDS011;18686;53.084;8.872;2024-03-02T09:39:53;13.20;;;8.73;;
32186;SDS011;18686;53.084;8.872;2024-03-02T09:42:23;14.05;;;9.82;;
32186;SDS011;18686;53.084;8.872;2024-03-02T09:44:52;12.32;;;9.50;;
32186;SDS011;18686;53.084;8.872;2024-03-02T09:47:21;10.75;;;8.40;;
32186;SDS011;18686;53.084;8.872;2024-03-02T09:49:50;14.93;;;9.77;;
32186;SDS011;18686;53.084;8.872;2024-03-02T09:52:18;14.00;;;10.15;;
32186;SDS011;18686;53.084;8.872;2024-03-02T09:54:47;10.93;;;8.75;;
32186;SDS011;18686;53.084;8.872;2024-03-02T09:57:15;13.52;;;9.90;;
32186;SDS011;18686;53.084;8.872;2024-03-02T09:59:46;13.65;;;9.30;;
32186;SDS011;18686;53.084;8.872;2024-03-02T10:02:14;12.55;;;9.27;;
32186;SDS011;18686;53.084;8.872;2024-03-02T10:04:42;11.02;;;8.70;;
32186;SDS011;18686;53.084;8.872;2024-03-02T10:07:12;11.10;;;8.65;;
32186;SDS011;18686;53.084;8.872;2024-03-02T10:09:41;10.82;;;9.02;;
32186;SDS011;18686;53.084;8.872;2024-03-02T10:12:13;12.27;;;8.32;;
32186;SDS011;18686;53.084;8.872;2024-03-02T10:14:43;25.30;;;11.38;;
32186;SDS011;18686;53.084;8.872;2024-03-02T10:17:13;11.50;;;8.77;;
32186;SDS011;18686;53.084;8.872;2024-03-02T10:19:42;11.98;;;8.40;;
32186;SDS011;18686;53.084;8.872;2024-03-02T10:22:10;11.63;;;8.20;;
32186;SDS011;18686;53.084;8.872;2024-03-02T10:24:39;9.57;;;7.00;;
32186;SDS011;18686;53.084;8.872;2024-03-02T10:27:14;10.20;;;8.05;;
32186;SDS011;18686;53.084;8.872;2024-03-02T10:29:45;14.95;;;8.50;;
32186;SDS011;18686;53.084;8.872;2024-03-02T10:32:15;8.50;;;6.88;;
32186;SDS011;18686;53.084;8.872;2024-03-02T10:34:44;9.23;;;7.30;;
32186;SDS011;18686;53.084;8.872;2024-03-02T10:37:14;10.23;;;7.20;;
32186;SDS011;18686;53.084;8.872;2024-03-02T10:39:45;8.35;;;7.38;;
32186;SDS011;18686;53.084;8.872;2024-03-02T10:42:14;7.85;;;6.45;;
32186;SDS011;18686;53.084;8.872;2024-03-02T10:44:43;8.23;;;7.10;;
32186;SDS011;18686;53.084;8.872;2024-03-02T10:47:13;8.63;;;7.05;;
32186;SDS011;18686;53.084;8.872;2024-03-02T10:49:44;10.35;;;8.20;;
32186;SDS011;18686;53.084;8.872;2024-03-02T10:52:16;8.88;;;7.28;;
32186;SDS011;18686;53.084;8.872;2024-03-02T10:54:44;9.45;;;7.20;;
32186;SDS011;18686;53.084;8.872;2024-03-02T10:57:13;8.77;;;6.93;;
32186;SDS011;18686;53.084;8.872;2024-03-02T10:59:46;9.27;;;7.22;;
32186;SDS011;18686;53.084;8.872;2024-03-02T11:02:20;5.75;;;5.15;;
32186;SDS011;18686;53.084;8.872;2024-03-02T11:04:50;7.32;;;5.70;;
32186;SDS011;18686;53.084;8.872;2024-03-02T11:07:22;8.82;;;6.97;;
32186;SDS011;18686;53.084;8.872;2024-03-02T11:09:54;6.25;;;5.65;;
32186;SDS011;18686;53.084;8.872;2024-03-02T11:12:28;6.82;;;5.60;;
32186;SDS011;18686;53.084;8.872;2024-03-02T11:14:58;6.72;;;6.03;;
32186;SDS011;18686;53.084;8.872;2024-03-02T11:17:27;7.45;;;6.53;;
32186;SDS011;18686;53.084;8.872;2024-03-02T11:19:58;6.35;;;5.43;;
32186;SDS011;18686;53.084;8.872;2024-03-02T11:22:27;6.40;;;5.60;;
32186;SDS011;18686;53.084;8.872;2024-03-02T11:24:56;6.75;;;5.95;;
32186;SDS011;18686;53.084;8.872;2024-03-02T11:30:48;6.22;;;5.63;;
32186;SDS011;18686;53.084;8.872;2024-03-02T11:33:24;6.00;;;5.40;;
32186;SDS011;18686;53.084;8.872;2024-03-02T11:35:57;4.50;;;4.10;;
32186;SDS011;18686;53.084;8.872;2024-03-02T11:38:32;5.75;;;4.95;;
32186;SDS011;18686;53.084;8.872;2024-03-02T11:41:03;5.40;;;4.38;;
32186;SDS011;18686;53.084;8.872;2024-03-02T11:43:36;4.45;;;3.95;;
32186;SDS011;18686;53.084;8.872;2024-03-02T11:46:08;6.38;;;5.57;;
32186;SDS011;18686;53.084;8.872;2024-03-02T11:48:39;5.55;;;4.90;;
32186;SDS011;18686;53.084;8.872;2024-03-02T11:51:09;6.13;;;5.30;;
32186;SDS011;18686;53.084;8.872;2024-03-02T11:53:39;3.08;;;2.78;;
32186;SDS011;18686;53.084;8.872;2024-03-02T11:56:09;3.97;;;3.63;;
32186;SDS011;18686;53.084;8.872;2024-03-02T11:58:39;5.03;;;4.00;;
32186;SDS011;18686;53.084;8.872;2024-03-02T12:01:10;3.90;;;3.40;;
32186;SDS011;18686;53.084;8.872;2024-03-02T12:03:40;4.93;;;4.30;;
32186;SDS011;18686;53.084;8.872;2024-03-02T12:06:10;6.18;;;3.75;;
32186;SDS011;18686;53.084;8.872;2024-03-02T12:08:40;5.68;;;4.38;;
32186;SDS011;18686;53.084;8.872;2024-03-02T12:11:08;3.53;;;3.08;;
32186;SDS011;18686;53.084;8.872;2024-03-02T12:13:51;3.28;;;2.90;;
32186;SDS011;18686;53.084;8.872;2024-03-02T12:16:22;5.45;;;4.47;;
32186;SDS011;18686;53.084;8.872;2024-03-02T12:18:51;5.03;;;3.63;;
32186;SDS011;18686;53.084;8.872;2024-03-02T12:21:22;3.55;;;3.22;;
32186;SDS011;18686;53.084;8.872;2024-03-02T12:23:50;5.47;;;4.10;;
32186;SDS011;18686;53.084;8.872;2024-03-02T12:26:18;5.70;;;4.80;;
32186;SDS011;18686;53.084;8.872;2024-03-02T12:28:47;4.13;;;3.83;;
32186;SDS011;18686;53.084;8.872;2024-03-02T12:31:15;4.57;;;4.07;;
32186;SDS011;18686;53.084;8.872;2024-03-02T12:33:44;4.85;;;4.30;;
32186;SDS011;18686;53.084;8.872;2024-03-02T12:36:13;3.92;;;3.25;;
32186;SDS011;18686;53.084;8.872;2024-03-02T12:38:44;4.63;;;4.22;;
32186;SDS011;18686;53.084;8.872;2024-03-02T12:41:14;5.82;;;3.53;;
32186;SDS011;18686;53.084;8.872;2024-03-02T12:43:42;4.03;;;3.35;;
32186;SDS011;18686;53.084;8.872;2024-03-02T12:46:11;4.18;;;3.10;;
32186;SDS011;18686;53.084;8.872;2024-03-02T12:48:40;4.28;;;2.35;;
32186;SDS011;18686;53.084;8.872;2024-03-02T12:51:08;4.72;;;3.80;;
32186;SDS011;18686;53.084;8.872;2024-03-02T12:53:37;5.13;;;4.63;;
32186;SDS011;18686;53.084;8.872;2024-03-02T12:56:07;5.57;;;4.90;;
32186;SDS011;18686;53.084;8.872;2024-03-02T12:58:38;5.00;;;3.63;;
32186;SDS011;18686;53.084;8.872;2024-03-02T13:01:08;4.22;;;3.47;;
32186;SDS011;18686;53.084;8.872;2024-03-02T13:03:37;3.60;;;3.30;;
32186;SDS011;18686;53.084;8.872;2024-03-02T13:06:06;5.43;;;3.78;;
32186;SDS011;18686;53.084;8.872;2024-03-02T13:08:35;3.90;;;3.17;;
32186;SDS011;18686;53.084;8.872;2024-03-02T13:11:03;4.20;;;3.80;;
32186;SDS011;18686;53.084;8.872;2024-03-02T13:13:35;5.13;;;3.78;;
32186;SDS011;18686;53.084;8.872;2024-03-02T13:16:04;4.13;;;3.55;;
32186;SDS011;18686;53.084;8.872;2024-03-02T13:18:36;3.80;;;3.40;;
32186;SDS011;18686;53.084;8.872;2024-03-02T13:21:05;6.70;;;4.25;;
32186;SDS011;18686;53.084;8.872;2024-03-02T13:23:34;4.55;;;3.20;;
32186;SDS011;18686;53.084;8.872;2024-03-02T13:26:02;5.43;;;3.67;;
32186;SDS011;18686;53.084;8.872;2024-03-02T13:28:31;4.50;;;3.55;;
32186;SDS011;18686;53.084;8.872;2024-03-02T13:31:01;6.30;;;4.05;;
32186;SDS011;18686;53.084;8.872;2024-03-02T13:33:29;3.67;;;3.38;;
32186;SDS011;18686;53.084;8.872;2024-03-02T13:35:59;5.30;;;3.50;;
32186;SDS011;18686;53.084;8.872;2024-03-02T13:38:29;3.63;;;3.28;;
32186;SDS011;18686;53.084;8.872;2024-03-02T13:40:57;5.53;;;4.00;;
32186;SDS011;18686;53.084;8.872;2024-03-02T13:43:27;3.70;;;3.15;;
32186;SDS011;18686;53.084;8.872;2024-03-02T13:45:58;4.57;;;3.90;;
32186;SDS011;18686;53.084;8.872;2024-03-02T13:48:28;4.70;;;3.35;;
32186;SDS011;18686;53.084;8.872;2024-03-02T13:50:57;7.65;;;3.70;;
32186;SDS011;18686;53.084;8.872;2024-03-02T13:53:25;4.00;;;3.60;;
32186;SDS011;18686;53.084;8.872;2024-03-02T13:55:54;4.20;;;3.65;;
32186;SDS011;18686;53.084;8.872;2024-03-02T13:58:22;8.63;;;3.20;;
32186;SDS011;18686;53.084;8.872;2024-03-02T14:00:50;3.28;;;2.80;;
32186;SDS011;18686;53.084;8.872;2024-03-02T14:03:19;3.80;;;3.42;;
32186;SDS011;18686;53.084;8.872;2024-03-02T14:05:51;3.58;;;3.25;;
32186;SDS011;18686;53.084;8.872;2024-03-02T14:08:19;2.80;;;2.50;;
32186;SDS011;18686;53.084;8.872;2024-03-02T14:10:48;3.88;;;3.13;;
32186;SDS011;18686;53.084;8.872;2024-03-02T14:13:16;3.40;;;2.55;;
32186;SDS011;18686;53.084;8.872;2024-03-02T14:15:44;3.35;;;2.92;;
32186;SDS011;18686;53.084;8.872;2024-03-02T14:18:13;3.03;;;2.53;;
32186;SDS011;18686;53.084;8.872;2024-03-02T14:20:41;3.17;;;2.83;;
32186;SDS011;18686;53.084;8.872;2024-03-02T14:23:13;8.55;;;7.35;;
32186;SDS011;18686;53.084;8.872;2024-03-02T14:25:42;3.03;;;2.72;;
32186;SDS011;18686;53.084;8.872;2024-03-02T14:28:10;4.10;;;2.85;;
32186;SDS011;18686;53.084;8.872;2024-03-02T14:30:58;4.90;;;3.80;;
32186;SDS011;18686;53.084;8.872;2024-03-02T14:33:28;3.90;;;3.50;;
32186;SDS011;18686;53.084;8.872;2024-03-02T14:35:57;4.38;;;3.47;;
32186;SDS011;18686;53.084;8.872;2024-03-02T14:38:27;5.40;;;3.70;;
32186;SDS011;18686;53.084;8.872;2024-03-02T14:40:56;4.35;;;3.50;;
32186;SDS011;18686;53.084;8.872;2024-03-02T14:43:25;5.07;;;3.42;;
32186;SDS011;18686;53.084;8.872;2024-03-02T14:45:53;4.30;;;3.55;;
32186;SDS011;18686;53.084;8.872;2024-03-02T14:48:21;4.15;;;2.97;;